sensor_id;sensor_type;location;lat;lon;timestamp;temperature;humidity
13268;DHT22;6702;47.068;15.458;2023-02-11T00:01:35;0.30;68.20
13268;DHT22;6702;47.068;15.458;2023-02-11T00:04:39;0.30;68.40
13268;DHT22;6702;47.068;15.458;2023-02-11T00:07:43;0.30;68.60
13268;DHT22;6702;47.068;15.458;2023-02-11T00:10:50;0.20;69.10
13268;DHT22;6702;47.068;15.458;2023-02-11T00:13:53;0.20;69.40
13268;DHT22;6702;47.068;15.458;2023-02-11T00:16:57;0.10;69.20
13268;DHT22;6702;47.068;15.458;2023-02-11T00:20:02;0.10;69.90
13268;DHT22;6702;47.068;15.458;2023-02-11T00:23:08;0.10;70.20
13268;DHT22;6702;47.068;15.458;2023-02-11T00:26:12;0.10;70.70
13268;DHT22;6702;47.068;15.458;2023-02-11T00:29:16;0.10;70.80
13268;DHT22;6702;47.068;15.458;2023-02-11T00:32:19;0.10;71.00
13268;DHT22;6702;47.068;15.458;2023-02-11T00:35:23;0.10;71.00
13268;DHT22;6702;47.068;15.458;2023-02-11T00:38:27;0.00;71.40
13268;DHT22;6702;47.068;15.458;2023-02-11T00:41:30;0.00;71.70
13268;DHT22;6702;47.068;15.458;2023-02-11T00:44:33;0.10;71.70
13268;DHT22;6702;47.068;15.458;2023-02-11T00:47:36;0.00;72.00
13268;DHT22;6702;47.068;15.458;2023-02-11T00:50:41;0.00;72.20
13268;DHT22;6702;47.068;15.458;2023-02-11T00:53:44;0.00;72.30
13268;DHT22;6702;47.068;15.458;2023-02-11T00:56:47;0.00;72.60
13268;DHT22;6702;47.068;15.458;2023-02-11T00:59:51;0.00;72.60
13268;DHT22;6702;47.068;15.458;2023-02-11T01:02:54;-0.10;72.80
13268;DHT22;6702;47.068;15.458;2023-02-11T01:05:59;-0.10;72.70
13268;DHT22;6702;47.068;15.458;2023-02-11T01:09:02;0.00;73.10
13268;DHT22;6702;47.068;15.458;2023-02-11T01:12:06;-0.10;73.30
13268;DHT22;6702;47.068;15.458;2023-02-11T01:15:11;-0.10;73.30
13268;DHT22;6702;47.068;15.458;2023-02-11T01:18:15;-0.10;73.40
13268;DHT22;6702;47.068;15.458;2023-02-11T01:21:20;-0.20;73.70
13268;DHT22;6702;47.068;15.458;2023-02-11T01:24:23;-0.20;73.80
13268;DHT22;6702;47.068;15.458;2023-02-11T01:27:26;-0.20;74.10
13268;DHT22;6702;47.068;15.458;2023-02-11T01:30:29;-0.20;74.30
13268;DHT22;6702;47.068;15.458;2023-02-11T01:33:33;-0.30;74.20
13268;DHT22;6702;47.068;15.458;2023-02-11T01:36:37;-0.30;75.40
13268;DHT22;6702;47.068;15.458;2023-02-11T01:39:41;-0.30;75.70
13268;DHT22;6702;47.068;15.458;2023-02-11T01:42:44;-0.30;75.70
13268;DHT22;6702;47.068;15.458;2023-02-11T01:46:00;-0.30;75.80
13268;DHT22;6702;47.068;15.458;2023-02-11T01:49:06;-0.30;75.80
13268;DHT22;6702;47.068;15.458;2023-02-11T01:52:15;-0.50;75.50
13268;DHT22;6702;47.068;15.458;2023-02-11T01:55:20;-0.50;76.10
13268;DHT22;6702;47.068;15.458;2023-02-11T01:58:43;-0.50;76.20
13268;DHT22;6702;47.068;15.458;2023-02-11T02:01:51;-0.50;76.70
13268;DHT22;6702;47.068;15.458;2023-02-11T02:05:02;-0.50;77.40
13268;DHT22;6702;47.068;15.458;2023-02-11T02:08:12;-0.50;77.60
13268;DHT22;6702;47.068;15.458;2023-02-11T02:11:16;-0.50;77.50
13268;DHT22;6702;47.068;15.458;2023-02-11T02:14:19;-0.50;77.40
13268;DHT22;6702;47.068;15.458;2023-02-11T02:17:31;-0.60;77.30
13268;DHT22;6702;47.068;15.458;2023-02-11T02:21:08;-0.60;77.60
13268;DHT22;6702;47.068;15.458;2023-02-11T02:24:30;-0.60;77.90
13268;DHT22;6702;47.068;15.458;2023-02-11T02:27:49;-0.60;78.20
13268;DHT22;6702;47.068;15.458;2023-02-11T02:31:24;-0.60;78.50
13268;DHT22;6702;47.068;15.458;2023-02-11T02:34:36;-0.70;78.70
13268;DHT22;6702;47.068;15.458;2023-02-11T02:37:54;-0.70;78.90
13268;DHT22;6702;47.068;15.458;2023-02-11T02:41:01;-0.70;79.30
13268;DHT22;6702;47.068;15.458;2023-02-11T02:44:06;-0.70;79.10
13268;DHT22;6702;47.068;15.458;2023-02-11T02:47:10;-0.70;79.10
13268;DHT22;6702;47.068;15.458;2023-02-11T02:50:16;-0.70;79.30
13268;DHT22;6702;47.068;15.458;2023-02-11T02:53:31;-0.80;80.00
13268;DHT22;6702;47.068;15.458;2023-02-11T02:56:40;-0.80;80.50
13268;DHT22;6702;47.068;15.458;2023-02-11T02:59:55;-0.80;81.00
13268;DHT22;6702;47.068;15.458;2023-02-11T03:03:14;-0.90;81.00
13268;DHT22;6702;47.068;15.458;2023-02-11T03:06:26;-0.80;81.60
13268;DHT22;6702;47.068;15.458;2023-02-11T03:09:36;-0.90;81.50
13268;DHT22;6702;47.068;15.458;2023-02-11T03:12:41;-0.90;81.70
13268;DHT22;6702;47.068;15.458;2023-02-11T03:15:49;-0.90;82.10
13268;DHT22;6702;47.068;15.458;2023-02-11T03:18:58;-0.90;82.10
13268;DHT22;6702;47.068;15.458;2023-02-11T03:22:09;-0.90;82.50
13268;DHT22;6702;47.068;15.458;2023-02-11T03:25:13;-0.90;82.70
13268;DHT22;6702;47.068;15.458;2023-02-11T03:28:23;-0.90;82.70
13268;DHT22;6702;47.068;15.458;2023-02-11T03:31:31;-0.90;82.70
13268;DHT22;6702;47.068;15.458;2023-02-11T03:34:41;-1.00;82.90
13268;DHT22;6702;47.068;15.458;2023-02-11T03:37:51;-1.00;83.30
13268;DHT22;6702;47.068;15.458;2023-02-11T03:40:57;-1.00;83.50
13268;DHT22;6702;47.068;15.458;2023-02-11T03:44:03;-1.10;83.80
13268;DHT22;6702;47.068;15.458;2023-02-11T03:47:09;-1.10;84.40
13268;DHT22;6702;47.068;15.458;2023-02-11T03:50:15;-1.10;84.60
13268;DHT22;6702;47.068;15.458;2023-02-11T03:53:21;-1.10;84.30
13268;DHT22;6702;47.068;15.458;2023-02-11T03:56:28;-1.10;84.40
13268;DHT22;6702;47.068;15.458;2023-02-11T03:59:52;-1.20;84.90
13268;DHT22;6702;47.068;15.458;2023-02-11T04:02:55;-1.20;84.90
13268;DHT22;6702;47.068;15.458;2023-02-11T04:05:58;-1.20;85.00
13268;DHT22;6702;47.068;15.458;2023-02-11T04:09:03;-1.20;85.00
13268;DHT22;6702;47.068;15.458;2023-02-11T04:12:07;-1.30;85.40
13268;DHT22;6702;47.068;15.458;2023-02-11T04:15:10;-1.30;85.60
13268;DHT22;6702;47.068;15.458;2023-02-11T04:18:13;-1.40;85.60
13268;DHT22;6702;47.068;15.458;2023-02-11T04:21:16;-1.40;86.00
13268;DHT22;6702;47.068;15.458;2023-02-11T04:24:21;-1.40;86.20
13268;DHT22;6702;47.068;15.458;2023-02-11T04:27:25;-1.50;86.40
13268;DHT22;6702;47.068;15.458;2023-02-11T04:30:28;-1.40;86.70
13268;DHT22;6702;47.068;15.458;2023-02-11T04:33:31;-1.50;86.90
13268;DHT22;6702;47.068;15.458;2023-02-11T04:36:34;-1.50;87.00
13268;DHT22;6702;47.068;15.458;2023-02-11T04:39:39;-1.50;87.20
13268;DHT22;6702;47.068;15.458;2023-02-11T04:42:42;-1.50;87.70
13268;DHT22;6702;47.068;15.458;2023-02-11T04:45:45;-1.60;88.30
13268;DHT22;6702;47.068;15.458;2023-02-11T04:48:49;-1.60;88.60
13268;DHT22;6702;47.068;15.458;2023-02-11T04:51:52;-1.60;88.50
13268;DHT22;6702;47.068;15.458;2023-02-11T04:54:57;-1.60;88.50
13268;DHT22;6702;47.068;15.458;2023-02-11T04:58:00;-1.60;89.00
13268;DHT22;6702;47.068;15.458;2023-02-11T05:01:06;-1.60;89.20
13268;DHT22;6702;47.068;15.458;2023-02-11T05:04:10;-1.60;89.40
13268;DHT22;6702;47.068;15.458;2023-02-11T05:07:13;-1.60;88.90
13268;DHT22;6702;47.068;15.458;2023-02-11T05:10:18;-1.70;89.20
13268;DHT22;6702;47.068;15.458;2023-02-11T05:13:21;-1.60;89.40
13268;DHT22;6702;47.068;15.458;2023-02-11T05:16:24;-1.60;89.40
13268;DHT22;6702;47.068;15.458;2023-02-11T05:19:27;-1.60;89.40
13268;DHT22;6702;47.068;15.458;2023-02-11T05:22:32;-1.60;89.20
13268;DHT22;6702;47.068;15.458;2023-02-11T05:25:37;-1.60;89.40
13268;DHT22;6702;47.068;15.458;2023-02-11T05:28:41;-1.70;89.40
13268;DHT22;6702;47.068;15.458;2023-02-11T05:31:44;-1.60;89.60
13268;DHT22;6702;47.068;15.458;2023-02-11T05:34:47;-1.60;89.20
13268;DHT22;6702;47.068;15.458;2023-02-11T05:37:50;-1.80;89.00
13268;DHT22;6702;47.068;15.458;2023-02-11T05:40:55;-1.80;89.20
13268;DHT22;6702;47.068;15.458;2023-02-11T05:43:58;-1.80;89.50
13268;DHT22;6702;47.068;15.458;2023-02-11T05:47:01;-1.80;90.00
13268;DHT22;6702;47.068;15.458;2023-02-11T05:50:05;-1.80;90.10
13268;DHT22;6702;47.068;15.458;2023-02-11T05:53:08;-1.80;90.10
13268;DHT22;6702;47.068;15.458;2023-02-11T05:56:13;-1.80;90.50
13268;DHT22;6702;47.068;15.458;2023-02-11T05:59:16;-1.80;90.80
13268;DHT22;6702;47.068;15.458;2023-02-11T06:02:20;-1.80;90.70
13268;DHT22;6702;47.068;15.458;2023-02-11T06:05:24;-1.80;91.00
13268;DHT22;6702;47.068;15.458;2023-02-11T06:08:27;-1.70;90.80
13268;DHT22;6702;47.068;15.458;2023-02-11T06:11:32;-1.70;90.60
13268;DHT22;6702;47.068;15.458;2023-02-11T06:14:35;-1.70;90.70
13268;DHT22;6702;47.068;15.458;2023-02-11T06:17:38;-1.60;90.70
13268;DHT22;6702;47.068;15.458;2023-02-11T06:20:41;-1.60;90.60
13268;DHT22;6702;47.068;15.458;2023-02-11T06:23:45;-1.60;90.40
13268;DHT22;6702;47.068;15.458;2023-02-11T06:26:49;-1.50;90.50
13268;DHT22;6702;47.068;15.458;2023-02-11T06:29:52;-1.50;90.60
13268;DHT22;6702;47.068;15.458;2023-02-11T06:32:55;-1.40;90.50
13268;DHT22;6702;47.068;15.458;2023-02-11T06:35:59;-1.30;90.60
13268;DHT22;6702;47.068;15.458;2023-02-11T06:39:02;-1.20;90.40
13268;DHT22;6702;47.068;15.458;2023-02-11T06:42:09;-1.20;90.30
13268;DHT22;6702;47.068;15.458;2023-02-11T06:45:12;-1.10;90.30
13268;DHT22;6702;47.068;15.458;2023-02-11T06:48:15;-1.00;90.00
13268;DHT22;6702;47.068;15.458;2023-02-11T06:51:19;-0.90;90.10
13268;DHT22;6702;47.068;15.458;2023-02-11T06:54:22;-0.70;90.00
13268;DHT22;6702;47.068;15.458;2023-02-11T06:57:27;-0.60;89.20
13268;DHT22;6702;47.068;15.458;2023-02-11T07:00:30;-0.50;88.00
13268;DHT22;6702;47.068;15.458;2023-02-11T07:03:34;-0.30;88.00
13268;DHT22;6702;47.068;15.458;2023-02-11T07:06:37;-0.10;87.60
13268;DHT22;6702;47.068;15.458;2023-02-11T07:09:40;0.00;86.80
13268;DHT22;6702;47.068;15.458;2023-02-11T07:12:45;0.20;86.30
13268;DHT22;6702;47.068;15.458;2023-02-11T07:15:48;0.30;84.90
13268;DHT22;6702;47.068;15.458;2023-02-11T07:18:52;0.50;84.90
13268;DHT22;6702;47.068;15.458;2023-02-11T07:21:56;0.60;84.20
13268;DHT22;6702;47.068;15.458;2023-02-11T07:24:59;0.60;83.70
13268;DHT22;6702;47.068;15.458;2023-02-11T07:28:04;0.70;84.10
13268;DHT22;6702;47.068;15.458;2023-02-11T07:31:08;0.80;83.10
13268;DHT22;6702;47.068;15.458;2023-02-11T07:34:12;0.90;83.30
13268;DHT22;6702;47.068;15.458;2023-02-11T07:37:15;0.90;82.80
13268;DHT22;6702;47.068;15.458;2023-02-11T07:40:18;0.90;82.00
13268;DHT22;6702;47.068;15.458;2023-02-11T07:43:23;0.90;82.10
13268;DHT22;6702;47.068;15.458;2023-02-11T07:46:26;1.00;81.80
13268;DHT22;6702;47.068;15.458;2023-02-11T07:49:30;1.10;81.90
13268;DHT22;6702;47.068;15.458;2023-02-11T07:52:33;1.20;81.40
13268;DHT22;6702;47.068;15.458;2023-02-11T07:55:36;1.30;81.00
13268;DHT22;6702;47.068;15.458;2023-02-11T07:58:41;1.30;80.60
13268;DHT22;6702;47.068;15.458;2023-02-11T08:01:44;1.20;80.50
13268;DHT22;6702;47.068;15.458;2023-02-11T08:04:48;1.40;80.30
13268;DHT22;6702;47.068;15.458;2023-02-11T08:07:52;1.40;79.90
13268;DHT22;6702;47.068;15.458;2023-02-11T08:10:55;1.40;79.30
13268;DHT22;6702;47.068;15.458;2023-02-11T08:14:00;1.40;79.70
13268;DHT22;6702;47.068;15.458;2023-02-11T08:17:03;1.50;79.60
13268;DHT22;6702;47.068;15.458;2023-02-11T08:20:07;1.70;79.80
13268;DHT22;6702;47.068;15.458;2023-02-11T08:23:10;1.90;79.40
13268;DHT22;6702;47.068;15.458;2023-02-11T08:26:15;2.10;78.30
13268;DHT22;6702;47.068;15.458;2023-02-11T08:29:20;2.20;77.40
13268;DHT22;6702;47.068;15.458;2023-02-11T08:32:23;2.30;76.70
13268;DHT22;6702;47.068;15.458;2023-02-11T08:35:26;2.30;76.30
13268;DHT22;6702;47.068;15.458;2023-02-11T08:38:30;2.20;76.40
13268;DHT22;6702;47.068;15.458;2023-02-11T08:41:34;2.20;76.90
13268;DHT22;6702;47.068;15.458;2023-02-11T08:44:38;2.30;76.40
13268;DHT22;6702;47.068;15.458;2023-02-11T08:47:42;2.50;75.60
13268;DHT22;6702;47.068;15.458;2023-02-11T08:50:45;2.70;75.40
13268;DHT22;6702;47.068;15.458;2023-02-11T08:53:49;2.90;74.50
13268;DHT22;6702;47.068;15.458;2023-02-11T08:56:52;3.20;73.40
13268;DHT22;6702;47.068;15.458;2023-02-11T08:59:57;3.50;72.40
13268;DHT22;6702;47.068;15.458;2023-02-11T09:03:00;3.70;71.20
13268;DHT22;6702;47.068;15.458;2023-02-11T09:06:04;4.10;70.20
13268;DHT22;6702;47.068;15.458;2023-02-11T09:09:10;4.50;69.20
13268;DHT22;6702;47.068;15.458;2023-02-11T09:12:14;5.00;67.10
13268;DHT22;6702;47.068;15.458;2023-02-11T09:15:18;5.40;64.10
13268;DHT22;6702;47.068;15.458;2023-02-11T09:18:22;5.70;63.20
13268;DHT22;6702;47.068;15.458;2023-02-11T09:21:25;5.80;62.20
13268;DHT22;6702;47.068;15.458;2023-02-11T09:24:29;5.80;60.70
13268;DHT22;6702;47.068;15.458;2023-02-11T09:27:32;5.60;62.00
13268;DHT22;6702;47.068;15.458;2023-02-11T09:30:37;5.90;61.20
13268;DHT22;6702;47.068;15.458;2023-02-11T09:33:42;8.40;59.60
13268;DHT22;6702;47.068;15.458;2023-02-11T09:36:49;12.00;49.80
13268;DHT22;6702;47.068;15.458;2023-02-11T09:39:53;13.50;41.20
13268;DHT22;6702;47.068;15.458;2023-02-11T09:43:02;13.20;38.60
13268;DHT22;6702;47.068;15.458;2023-02-11T09:46:13;12.10;39.50
13268;DHT22;6702;47.068;15.458;2023-02-11T09:49:22;10.90;41.00
13268;DHT22;6702;47.068;15.458;2023-02-11T09:52:34;9.90;43.00
13268;DHT22;6702;47.068;15.458;2023-02-11T09:55:41;8.90;44.80
13268;DHT22;6702;47.068;15.458;2023-02-11T09:58:44;8.40;46.70
13268;DHT22;6702;47.068;15.458;2023-02-11T10:01:54;8.40;48.10
13268;DHT22;6702;47.068;15.458;2023-02-11T10:05:22;9.70;46.40
13268;DHT22;6702;47.068;15.458;2023-02-11T10:08:33;11.00;44.00
13268;DHT22;6702;47.068;15.458;2023-02-11T10:11:48;13.80;39.30
13268;DHT22;6702;47.068;15.458;2023-02-11T10:15:07;15.40;38.80
13268;DHT22;6702;47.068;15.458;2023-02-11T10:18:35;16.30;34.40
13268;DHT22;6702;47.068;15.458;2023-02-11T10:21:50;16.40;32.90
13268;DHT22;6702;47.068;15.458;2023-02-11T10:24:55;17.40;30.80
13268;DHT22;6702;47.068;15.458;2023-02-11T10:28:10;19.20;29.00
13268;DHT22;6702;47.068;15.458;2023-02-11T10:31:17;20.90;26.60
13268;DHT22;6702;47.068;15.458;2023-02-11T10:34:24;21.70;24.70
13268;DHT22;6702;47.068;15.458;2023-02-11T10:37:28;22.30;23.80
13268;DHT22;6702;47.068;15.458;2023-02-11T10:40:31;23.50;22.40
13268;DHT22;6702;47.068;15.458;2023-02-11T10:43:36;23.90;22.10
13268;DHT22;6702;47.068;15.458;2023-02-11T10:46:39;25.80;20.80
13268;DHT22;6702;47.068;15.458;2023-02-11T10:49:45;27.50;19.40
13268;DHT22;6702;47.068;15.458;2023-02-11T10:52:48;29.00;18.10
13268;DHT22;6702;47.068;15.458;2023-02-11T10:55:53;30.50;17.10
13268;DHT22;6702;47.068;15.458;2023-02-11T10:59:00;32.50;15.30
13268;DHT22;6702;47.068;15.458;2023-02-11T11:02:04;34.10;13.90
13268;DHT22;6702;47.068;15.458;2023-02-11T11:05:17;35.50;12.40
13268;DHT22;6702;47.068;15.458;2023-02-11T11:08:21;36.20;11.50
13268;DHT22;6702;47.068;15.458;2023-02-11T11:11:25;36.90;10.60
13268;DHT22;6702;47.068;15.458;2023-02-11T11:14:28;36.00;10.40
13268;DHT22;6702;47.068;15.458;2023-02-11T11:17:32;34.20;10.80
13268;DHT22;6702;47.068;15.458;2023-02-11T11:20:36;32.60;11.50
13268;DHT22;6702;47.068;15.458;2023-02-11T11:23:47;31.30;12.20
13268;DHT22;6702;47.068;15.458;2023-02-11T11:26:53;29.10;13.10
13268;DHT22;6702;47.068;15.458;2023-02-11T11:29:56;28.40;14.10
13268;DHT22;6702;47.068;15.458;2023-02-11T11:33:02;29.80;13.70
13268;DHT22;6702;47.068;15.458;2023-02-11T11:36:09;28.50;13.90
13268;DHT22;6702;47.068;15.458;2023-02-11T11:39:19;25.70;15.40
13268;DHT22;6702;47.068;15.458;2023-02-11T11:42:26;22.30;17.40
13268;DHT22;6702;47.068;15.458;2023-02-11T11:45:29;20.20;19.80
13268;DHT22;6702;47.068;15.458;2023-02-11T11:48:36;19.20;20.60
13268;DHT22;6702;47.068;15.458;2023-02-11T11:51:46;18.00;21.80
13268;DHT22;6702;47.068;15.458;2023-02-11T11:54:59;19.90;21.90
13268;DHT22;6702;47.068;15.458;2023-02-11T11:58:09;21.60;20.60
13268;DHT22;6702;47.068;15.458;2023-02-11T12:01:27;25.60;18.90
13268;DHT22;6702;47.068;15.458;2023-02-11T12:04:53;28.20;16.70
13268;DHT22;6702;47.068;15.458;2023-02-11T12:08:08;29.90;15.40
13268;DHT22;6702;47.068;15.458;2023-02-11T12:11:19;32.30;14.20
13268;DHT22;6702;47.068;15.458;2023-02-11T12:14:36;33.90;12.80
13268;DHT22;6702;47.068;15.458;2023-02-11T12:17:53;35.20;12.10
13268;DHT22;6702;47.068;15.458;2023-02-11T12:24:44;35.80;11.30
13268;DHT22;6702;47.068;15.458;2023-02-11T12:28:13;35.50;11.40
13268;DHT22;6702;47.068;15.458;2023-02-11T12:31:38;36.20;10.90
13268;DHT22;6702;47.068;15.458;2023-02-11T12:35:00;36.90;10.40
13268;DHT22;6702;47.068;15.458;2023-02-11T12:38:27;36.60;10.30
13268;DHT22;6702;47.068;15.458;2023-02-11T12:41:50;35.50;10.00
13268;DHT22;6702;47.068;15.458;2023-02-11T12:45:21;31.20;11.80
13268;DHT22;6702;47.068;15.458;2023-02-11T12:48:42;27.90;13.80
13268;DHT22;6702;47.068;15.458;2023-02-11T12:52:02;25.50;15.60
13268;DHT22;6702;47.068;15.458;2023-02-11T12:55:12;24.70;16.40
13268;DHT22;6702;47.068;15.458;2023-02-11T12:58:22;25.50;16.50
13268;DHT22;6702;47.068;15.458;2023-02-11T13:01:41;27.10;15.40
13268;DHT22;6702;47.068;15.458;2023-02-11T13:04:50;27.50;14.40
13268;DHT22;6702;47.068;15.458;2023-02-11T13:08:01;26.50;14.40
13268;DHT22;6702;47.068;15.458;2023-02-11T13:11:08;24.50;15.70
13268;DHT22;6702;47.068;15.458;2023-02-11T13:14:30;23.50;16.30
13268;DHT22;6702;47.068;15.458;2023-02-11T13:17:39;23.50;16.60
13268;DHT22;6702;47.068;15.458;2023-02-11T13:20:53;24.50;16.60
13268;DHT22;6702;47.068;15.458;2023-02-11T13:24:14;27.60;15.40
13268;DHT22;6702;47.068;15.458;2023-02-11T13:27:28;29.80;13.30
13268;DHT22;6702;47.068;15.458;2023-02-11T13:30:37;30.40;12.40
13268;DHT22;6702;47.068;15.458;2023-02-11T13:33:47;31.00;12.40
13268;DHT22;6702;47.068;15.458;2023-02-11T13:36:55;32.10;11.80
13268;DHT22;6702;47.068;15.458;2023-02-11T13:40:00;32.20;11.30
13268;DHT22;6702;47.068;15.458;2023-02-11T13:43:06;32.00;11.60
13268;DHT22;6702;47.068;15.458;2023-02-11T13:46:22;32.40;11.00
13268;DHT22;6702;47.068;15.458;2023-02-11T13:49:30;31.20;11.00
13268;DHT22;6702;47.068;15.458;2023-02-11T13:52:37;28.60;12.20
13268;DHT22;6702;47.068;15.458;2023-02-11T13:55:44;25.40;14.10
13268;DHT22;6702;47.068;15.458;2023-02-11T13:58:49;22.80;15.00
13268;DHT22;6702;47.068;15.458;2023-02-11T14:02:19;20.50;16.00
13268;DHT22;6702;47.068;15.458;2023-02-11T14:06:11;20.10;16.70
13268;DHT22;6702;47.068;15.458;2023-02-11T14:09:35;19.30;16.90
13268;DHT22;6702;47.068;15.458;2023-02-11T14:12:40;17.90;17.70
13268;DHT22;6702;47.068;15.458;2023-02-11T14:15:45;17.20;18.10
13268;DHT22;6702;47.068;15.458;2023-02-11T14:19:00;17.30;18.60
13268;DHT22;6702;47.068;15.458;2023-02-11T14:22:11;16.80;18.90
13268;DHT22;6702;47.068;15.458;2023-02-11T14:25:21;16.50;19.10
13268;DHT22;6702;47.068;15.458;2023-02-11T14:28:28;16.40;19.30
13268;DHT22;6702;47.068;15.458;2023-02-11T14:31:39;15.80;19.60
13268;DHT22;6702;47.068;15.458;2023-02-11T14:34:52;15.50;20.00
13268;DHT22;6702;47.068;15.458;2023-02-11T14:38:04;14.90;20.30
13268;DHT22;6702;47.068;15.458;2023-02-11T14:41:15;14.50;21.00
13268;DHT22;6702;47.068;15.458;2023-02-11T14:44:23;14.10;21.60
13268;DHT22;6702;47.068;15.458;2023-02-11T14:47:33;13.70;21.70
13268;DHT22;6702;47.068;15.458;2023-02-11T14:50:43;13.20;22.40
13268;DHT22;6702;47.068;15.458;2023-02-11T14:53:49;13.00;22.80
13268;DHT22;6702;47.068;15.458;2023-02-11T14:57:11;12.80;23.00
13268;DHT22;6702;47.068;15.458;2023-02-11T15:00:17;12.50;23.00
13268;DHT22;6702;47.068;15.458;2023-02-11T15:03:41;12.20;23.20
13268;DHT22;6702;47.068;15.458;2023-02-11T15:06:48;11.90;23.50
13268;DHT22;6702;47.068;15.458;2023-02-11T15:09:53;11.90;23.70
13268;DHT22;6702;47.068;15.458;2023-02-11T15:13:01;11.80;23.80
13268;DHT22;6702;47.068;15.458;2023-02-11T15:16:07;11.70;23.70
13268;DHT22;6702;47.068;15.458;2023-02-11T15:19:20;11.50;23.90
13268;DHT22;6702;47.068;15.458;2023-02-11T15:22:31;11.30;24.70
13268;DHT22;6702;47.068;15.458;2023-02-11T15:25:42;11.00;25.30
13268;DHT22;6702;47.068;15.458;2023-02-11T15:28:48;10.90;25.70
13268;DHT22;6702;47.068;15.458;2023-02-11T15:32:04;10.70;26.30
13268;DHT22;6702;47.068;15.458;2023-02-11T15:35:10;10.60;26.70
13268;DHT22;6702;47.068;15.458;2023-02-11T15:38:17;10.50;26.90
13268;DHT22;6702;47.068;15.458;2023-02-11T15:41:36;10.40;27.00
13268;DHT22;6702;47.068;15.458;2023-02-11T15:44:42;10.30;27.30
13268;DHT22;6702;47.068;15.458;2023-02-11T15:47:51;10.20;27.60
13268;DHT22;6702;47.068;15.458;2023-02-11T15:50:59;10.20;27.80
13268;DHT22;6702;47.068;15.458;2023-02-11T15:54:14;10.10;27.80
13268;DHT22;6702;47.068;15.458;2023-02-11T15:57:21;9.90;29.20
13268;DHT22;6702;47.068;15.458;2023-02-11T16:00:33;9.70;29.50
13268;DHT22;6702;47.068;15.458;2023-02-11T16:03:40;9.50;29.80
13268;DHT22;6702;47.068;15.458;2023-02-11T16:06:50;9.20;30.40
13268;DHT22;6702;47.068;15.458;2023-02-11T16:09:59;9.20;30.60
13268;DHT22;6702;47.068;15.458;2023-02-11T16:13:18;9.20;30.80
13268;DHT22;6702;47.068;15.458;2023-02-11T16:16:24;9.20;30.80
13268;DHT22;6702;47.068;15.458;2023-02-11T16:19:31;9.20;30.80
13268;DHT22;6702;47.068;15.458;2023-02-11T16:22:36;9.20;30.80
13268;DHT22;6702;47.068;15.458;2023-02-11T16:25:43;9.20;31.00
13268;DHT22;6702;47.068;15.458;2023-02-11T16:28:49;9.10;31.00
13268;DHT22;6702;47.068;15.458;2023-02-11T16:32:06;9.00;31.20
13268;DHT22;6702;47.068;15.458;2023-02-11T16:35:12;8.90;31.70
13268;DHT22;6702;47.068;15.458;2023-02-11T16:38:17;8.80;32.10
13268;DHT22;6702;47.068;15.458;2023-02-11T16:41:24;8.70;32.40
13268;DHT22;6702;47.068;15.458;2023-02-11T16:44:29;8.60;32.60
13268;DHT22;6702;47.068;15.458;2023-02-11T16:47:34;8.50;33.20
13268;DHT22;6702;47.068;15.458;2023-02-11T16:50:46;8.40;33.60
13268;DHT22;6702;47.068;15.458;2023-02-11T16:53:54;8.30;33.80
13268;DHT22;6702;47.068;15.458;2023-02-11T16:57:04;8.20;34.00
13268;DHT22;6702;47.068;15.458;2023-02-11T17:00:13;8.20;34.30
13268;DHT22;6702;47.068;15.458;2023-02-11T17:03:21;8.10;34.90
13268;DHT22;6702;47.068;15.458;2023-02-11T17:06:27;8.00;35.00
13268;DHT22;6702;47.068;15.458;2023-02-11T17:09:32;8.00;35.40
13268;DHT22;6702;47.068;15.458;2023-02-11T17:12:39;7.90;35.80
13268;DHT22;6702;47.068;15.458;2023-02-11T17:15:46;8.00;36.20
13268;DHT22;6702;47.068;15.458;2023-02-11T17:18:52;8.00;36.20
13268;DHT22;6702;47.068;15.458;2023-02-11T17:21:57;7.70;37.70
13268;DHT22;6702;47.068;15.458;2023-02-11T17:25:01;7.70;38.00
13268;DHT22;6702;47.068;15.458;2023-02-11T17:28:09;7.70;38.50
13268;DHT22;6702;47.068;15.458;2023-02-11T17:31:14;7.70;38.20
13268;DHT22;6702;47.068;15.458;2023-02-11T17:34:20;7.70;38.30
13268;DHT22;6702;47.068;15.458;2023-02-11T17:37:25;7.80;38.60
13268;DHT22;6702;47.068;15.458;2023-02-11T17:40:29;7.80;38.60
13268;DHT22;6702;47.068;15.458;2023-02-11T17:43:36;7.80;38.50
13268;DHT22;6702;47.068;15.458;2023-02-11T17:46:41;7.70;38.50
13268;DHT22;6702;47.068;15.458;2023-02-11T17:49:46;7.70;39.00
13268;DHT22;6702;47.068;15.458;2023-02-11T17:52:51;7.70;39.20
13268;DHT22;6702;47.068;15.458;2023-02-11T17:55:55;7.60;39.50
13268;DHT22;6702;47.068;15.458;2023-02-11T17:59:02;7.50;39.50
13268;DHT22;6702;47.068;15.458;2023-02-11T18:02:06;7.50;39.50
13268;DHT22;6702;47.068;15.458;2023-02-11T18:05:15;7.50;39.70
13268;DHT22;6702;47.068;15.458;2023-02-11T18:08:20;7.40;39.90
13268;DHT22;6702;47.068;15.458;2023-02-11T18:11:24;7.30;40.20
13268;DHT22;6702;47.068;15.458;2023-02-11T18:14:31;7.30;40.30
13268;DHT22;6702;47.068;15.458;2023-02-11T18:17:37;7.30;40.80
13268;DHT22;6702;47.068;15.458;2023-02-11T18:20:42;7.20;40.80
13268;DHT22;6702;47.068;15.458;2023-02-11T18:23:48;7.10;41.20
13268;DHT22;6702;47.068;15.458;2023-02-11T18:26:53;7.00;41.60
13268;DHT22;6702;47.068;15.458;2023-02-11T18:29:59;6.80;42.30
13268;DHT22;6702;47.068;15.458;2023-02-11T18:33:06;6.80;42.50
13268;DHT22;6702;47.068;15.458;2023-02-11T18:36:14;6.70;42.60
13268;DHT22;6702;47.068;15.458;2023-02-11T18:39:20;6.70;42.70
13268;DHT22;6702;47.068;15.458;2023-02-11T18:42:25;6.70;42.90
13268;DHT22;6702;47.068;15.458;2023-02-11T18:45:31;6.70;43.20
13268;DHT22;6702;47.068;15.458;2023-02-11T18:48:36;6.60;43.60
13268;DHT22;6702;47.068;15.458;2023-02-11T18:51:40;6.50;43.80
13268;DHT22;6702;47.068;15.458;2023-02-11T18:54:44;6.40;44.00
13268;DHT22;6702;47.068;15.458;2023-02-11T18:57:50;6.40;44.70
13268;DHT22;6702;47.068;15.458;2023-02-11T19:00:57;6.20;44.50
13268;DHT22;6702;47.068;15.458;2023-02-11T19:04:03;6.10;44.80
13268;DHT22;6702;47.068;15.458;2023-02-11T19:07:08;6.00;44.80
13268;DHT22;6702;47.068;15.458;2023-02-11T19:10:16;5.90;45.20
13268;DHT22;6702;47.068;15.458;2023-02-11T19:13:22;5.70;45.60
13268;DHT22;6702;47.068;15.458;2023-02-11T19:16:28;5.60;46.20
13268;DHT22;6702;47.068;15.458;2023-02-11T19:19:35;5.60;46.20
13268;DHT22;6702;47.068;15.458;2023-02-11T19:22:44;5.60;46.60
13268;DHT22;6702;47.068;15.458;2023-02-11T19:25:48;5.60;47.00
13268;DHT22;6702;47.068;15.458;2023-02-11T19:28:54;5.50;47.20
13268;DHT22;6702;47.068;15.458;2023-02-11T19:32:02;5.40;47.10
13268;DHT22;6702;47.068;15.458;2023-02-11T19:35:07;5.30;47.50
13268;DHT22;6702;47.068;15.458;2023-02-11T19:38:13;5.30;48.00
13268;DHT22;6702;47.068;15.458;2023-02-11T19:41:19;5.30;48.20
13268;DHT22;6702;47.068;15.458;2023-02-11T19:44:25;5.20;48.30
13268;DHT22;6702;47.068;15.458;2023-02-11T19:47:32;5.10;48.60
13268;DHT22;6702;47.068;15.458;2023-02-11T19:50:36;4.90;49.40
13268;DHT22;6702;47.068;15.458;2023-02-11T19:53:41;4.90;49.70
13268;DHT22;6702;47.068;15.458;2023-02-11T19:56:46;4.80;50.10